Time;durP1;ratioP1;P1;durP2;ratioP2;P2;SDS_P1;SDS_P2;PMS_P1;PMS_P2;Temp;Humidity;BMP_temperature;BMP_pressure;BME280_temperature;BME280_humidity;BME280_pressure;Samples;Min_cycle;Max_cycle;Signal;HPM_P1;HPM_P2
2024/05/05 00:00:50;;;;;;;25.25;5.80;;;;;;;;;;5302465;26;20081;-69
2024/05/05 00:03:16;;;;;;;31.80;5.82;;;;;;;;;;5290036;26;20006;-69
2024/05/05 00:05:41;;;;;;;31.27;5.18;;;;;;;;;;5294827;26;20096;-69
2024/05/05 00:08:07;;;;;;;206.55;9.35;;;;;;;;;;5280548;27;19998;-69
2024/05/05 00:10:32;;;;;;;121.47;7.82;;;;;;;;;;5327472;26;20015;-69
2024/05/05 00:12:57;;;;;;;130.88;8.05;;;;;;;;;;5309400;26;20021;-69
2024/05/05 00:15:23;;;;;;;190.25;10.30;;;;;;;;;;5300066;26;20448;-69
2024/05/05 00:17:48;;;;;;;234.43;10.90;;;;;;;;;;5299235;26;20459;-69
2024/05/05 00:20:13;;;;;;;187.60;10.30;;;;;;;;;;5299129;26;20536;-68
2024/05/05 00:22:39;;;;;;;238.70;10.43;;;;;;;;;;5300919;26;20001;-69
2024/05/05 00:25:04;;;;;;;326.75;12.13;;;;;;;;;;5302291;26;19997;-68
2024/05/05 00:27:30;;;;;;;237.88;11.15;;;;;;;;;;5298345;26;19998;-69
2024/05/05 00:29:55;;;;;;;134.70;9.52;;;;;;;;;;5300215;26;19998;-69
2024/05/05 00:32:20;;;;;;;173.82;9.50;;;;;;;;;;5299334;26;20005;-69
2024/05/05 00:34:46;;;;;;;200.52;10.52;;;;;;;;;;5300141;26;20017;-69
2024/05/05 00:37:11;;;;;;;84.03;8.13;;;;;;;;;;5300013;26;20460;-69
2024/05/05 00:39:36;;;;;;;126.88;9.85;;;;;;;;;;5298875;26;20314;-69
2024/05/05 00:42:02;;;;;;;112.80;9.35;;;;;;;;;;5295733;26;19997;-68
2024/05/05 00:44:27;;;;;;;84.80;8.38;;;;;;;;;;5299240;26;20001;-68
2024/05/05 00:46:53;;;;;;;97.38;8.98;;;;;;;;;;5299928;26;20479;-69
2024/05/05 00:49:18;;;;;;;163.65;10.75;;;;;;;;;;5299656;26;20012;-69
2024/05/05 00:51:45;;;;;;;81.28;9.02;;;;;;;;;;5300249;26;19993;-69
2024/05/05 00:54:11;;;;;;;165.77;10.63;;;;;;;;;;5299636;26;20013;-69
2024/05/05 00:56:38;;;;;;;96.53;8.90;;;;;;;;;;5299670;26;20027;-69
2024/05/05 00:59:04;;;;;;;112.30;11.05;;;;;;;;;;5300446;26;20009;-69
2024/05/05 01:01:29;;;;;;;110.50;11.68;;;;;;;;;;5312654;26;19997;-69
2024/05/05 01:03:54;;;;;;;108.20;10.82;;;;;;;;;;5316641;26;20008;-69
2024/05/05 01:06:22;;;;;;;116.70;10.13;;;;;;;;;;5307618;26;20349;-69
2024/05/05 01:08:48;;;;;;;200.88;13.60;;;;;;;;;;5298584;26;20009;-69
2024/05/05 01:11:14;;;;;;;148.73;11.60;;;;;;;;;;5306508;26;20008;-69
2024/05/05 01:13:39;;;;;;;155.18;12.48;;;;;;;;;;5299238;26;20006;-69
2024/05/05 01:16:06;;;;;;;155.80;11.65;;;;;;;;;;5324703;26;20004;-68
2024/05/05 01:18:31;;;;;;;132.90;12.23;;;;;;;;;;5318931;26;20072;-69
2024/05/05 01:20:56;;;;;;;140.60;12.10;;;;;;;;;;5300500;26;20005;-68
2024/05/05 01:23:22;;;;;;;85.07;10.77;;;;;;;;;;5291799;26;20052;-68
2024/05/05 01:25:47;;;;;;;94.28;10.80;;;;;;;;;;5300038;27;20002;-69
2024/05/05 01:28:13;;;;;;;72.85;10.40;;;;;;;;;;5301526;26;20305;-69
2024/05/05 01:30:38;;;;;;;58.72;9.63;;;;;;;;;;5329597;26;20001;-69
2024/05/05 01:33:03;;;;;;;125.00;11.38;;;;;;;;;;5333989;26;20020;-68
2024/05/05 01:35:29;;;;;;;76.20;10.77;;;;;;;;;;5314615;26;20419;-68
2024/05/05 01:37:54;;;;;;;93.70;11.57;;;;;;;;;;5334792;26;20008;-69
2024/05/05 01:40:19;;;;;;;119.05;11.93;;;;;;;;;;5317432;26;20871;-69
2024/05/05 01:42:45;;;;;;;85.50;10.90;;;;;;;;;;5335220;26;19997;-68
2024/05/05 01:45:10;;;;;;;81.47;11.30;;;;;;;;;;5333727;26;20327;-69
2024/05/05 01:47:36;;;;;;;47.25;10.35;;;;;;;;;;5335165;26;20008;-68
2024/05/05 01:50:01;;;;;;;48.55;10.90;;;;;;;;;;5336263;26;20001;-69
2024/05/05 01:52:26;;;;;;;75.00;10.52;;;;;;;;;;5334444;26;20013;-69
2024/05/05 01:54:52;;;;;;;132.07;11.93;;;;;;;;;;5334401;26;20623;-69
2024/05/05 01:57:17;;;;;;;109.25;11.63;;;;;;;;;;5333534;26;20019;-68
2024/05/05 01:59:42;;;;;;;127.72;11.95;;;;;;;;;;5332975;26;20004;-69
2024/05/05 02:02:10;;;;;;;68.25;11.00;;;;;;;;;;5317522;26;20370;-68
2024/05/05 02:04:36;;;;;;;45.97;9.43;;;;;;;;;;5334476;26;20075;-68
2024/05/05 02:07:01;;;;;;;107.22;11.40;;;;;;;;;;5334346;26;19997;-69
2024/05/05 02:09:26;;;;;;;51.95;9.85;;;;;;;;;;5332370;26;20803;-69
2024/05/05 02:11:52;;;;;;;135.23;11.00;;;;;;;;;;5330581;26;20340;-69
2024/05/05 02:14:17;;;;;;;104.78;10.75;;;;;;;;;;5334822;26;20103;-68
2024/05/05 02:16:42;;;;;;;53.95;9.65;;;;;;;;;;5333819;26;20079;-69
2024/05/05 02:19:08;;;;;;;73.88;10.10;;;;;;;;;;5333837;26;20008;-69
2024/05/05 02:21:33;;;;;;;100.63;10.82;;;;;;;;;;5333189;26;20335;-69
2024/05/05 02:24:06;;;;;;;102.53;10.73;;;;;;;;;;5333254;26;20078;-69
2024/05/05 02:26:31;;;;;;;165.20;12.23;;;;;;;;;;5333474;26;20020;-68
2024/05/05 02:28:56;;;;;;;116.25;9.60;;;;;;;;;;5324090;26;20327;-69
2024/05/05 02:31:22;;;;;;;95.40;9.85;;;;;;;;;;5333055;26;19997;-69
2024/05/05 02:33:47;;;;;;;126.65;11.93;;;;;;;;;;5333176;26;20469;-69
2024/05/05 02:36:15;;;;;;;102.63;11.13;;;;;;;;;;5333051;26;20056;-69
2024/05/05 02:38:40;;;;;;;69.47;9.63;;;;;;;;;;5333347;26;20075;-69
2024/05/05 02:41:07;;;;;;;63.60;9.65;;;;;;;;;;5333698;26;20446;-68
2024/05/05 02:43:32;;;;;;;79.43;11.80;;;;;;;;;;5333504;26;20020;-69
2024/05/05 02:45:59;;;;;;;75.88;11.23;;;;;;;;;;5332144;26;20448;-69
2024/05/05 02:48:24;;;;;;;78.88;10.52;;;;;;;;;;5331532;26;20015;-68
2024/05/05 02:50:49;;;;;;;163.38;13.93;;;;;;;;;;5332655;26;20008;-68
2024/05/05 02:53:15;;;;;;;126.40;11.63;;;;;;;;;;5334522;26;20004;-69
2024/05/05 02:55:40;;;;;;;147.75;11.95;;;;;;;;;;5332410;26;20025;-69
2024/05/05 02:58:05;;;;;;;163.70;12.77;;;;;;;;;;5332927;26;19997;-68
2024/05/05 03:00:31;;;;;;;77.70;11.18;;;;;;;;;;5332422;26;20012;-68
2024/05/05 03:02:56;;;;;;;148.13;11.93;;;;;;;;;;5332267;26;19997;-68
2024/05/05 03:05:21;;;;;;;157.07;13.38;;;;;;;;;;5332235;26;20022;-68
2024/05/05 03:07:47;;;;;;;135.80;12.00;;;;;;;;;;5333130;26;19993;-69
2024/05/05 03:10:12;;;;;;;138.05;11.95;;;;;;;;;;5315810;26;20071;-68
2024/05/05 03:12:41;;;;;;;131.48;11.98;;;;;;;;;;5331328;26;20079;-68
2024/05/05 03:15:07;;;;;;;128.10;14.98;;;;;;;;;;5319793;26;20011;-69
2024/05/05 03:17:32;;;;;;;99.88;12.07;;;;;;;;;;5316140;26;20005;-68
2024/05/05 03:19:58;;;;;;;96.97;13.07;;;;;;;;;;5332716;26;20012;-68
2024/05/05 03:22:23;;;;;;;147.75;13.57;;;;;;;;;;5331414;26;20005;-68
2024/05/05 03:24:48;;;;;;;120.63;12.13;;;;;;;;;;5332920;26;20008;-68
2024/05/05 03:27:14;;;;;;;84.55;10.32;;;;;;;;;;5332640;26;20019;-69
2024/05/05 03:29:39;;;;;;;32.22;10.93;;;;;;;;;;5331302;26;20008;-68
2024/05/05 03:32:04;;;;;;;32.88;10.57;;;;;;;;;;5345882;26;20001;-69
2024/05/05 03:34:30;;;;;;;30.38;10.52;;;;;;;;;;5331504;26;20016;-68
2024/05/05 03:36:55;;;;;;;23.30;10.10;;;;;;;;;;5331101;26;19997;-69
2024/05/05 03:39:20;;;;;;;26.42;11.00;;;;;;;;;;5315883;26;20016;-69
2024/05/05 03:41:46;;;;;;;38.33;10.45;;;;;;;;;;5331189;26;19993;-68
2024/05/05 03:44:11;;;;;;;23.25;10.52;;;;;;;;;;5332022;26;20322;-69
2024/05/05 03:46:37;;;;;;;24.73;10.40;;;;;;;;;;5331883;26;20005;-69
2024/05/05 03:49:02;;;;;;;20.23;9.10;;;;;;;;;;5335113;26;20334;-69
2024/05/05 03:51:27;;;;;;;28.08;9.38;;;;;;;;;;5333844;26;20012;-69
2024/05/05 03:53:53;;;;;;;22.88;9.68;;;;;;;;;;5318964;26;20012;-68
2024/05/05 03:56:18;;;;;;;32.05;10.05;;;;;;;;;;5335047;26;20005;-69
2024/05/05 03:58:43;;;;;;;38.83;10.38;;;;;;;;;;5334716;26;20440;-69
2024/05/05 04:01:09;;;;;;;26.25;10.20;;;;;;;;;;5335022;26;20821;-68
2024/05/05 04:03:34;;;;;;;33.55;10.70;;;;;;;;;;5334927;26;20009;-68
2024/05/05 04:06:00;;;;;;;30.85;8.85;;;;;;;;;;5335071;26;20000;-69
2024/05/05 04:08:25;;;;;;;26.73;9.48;;;;;;;;;;5334569;26;20410;-69
2024/05/05 04:10:50;;;;;;;49.25;9.65;;;;;;;;;;5334336;26;19997;-69
2024/05/05 04:13:16;;;;;;;27.15;9.77;;;;;;;;;;5335435;26;20001;-68
2024/05/05 04:15:41;;;;;;;37.95;8.90;;;;;;;;;;5334127;26;20033;-68
2024/05/05 04:18:06;;;;;;;26.98;8.00;;;;;;;;;;5334595;26;20016;-68
2024/05/05 04:20:32;;;;;;;35.20;8.20;;;;;;;;;;5332358;26;20005;-68
2024/05/05 04:22:57;;;;;;;38.05;8.48;;;;;;;;;;5334754;26;19997;-69
2024/05/05 04:25:23;;;;;;;27.40;7.75;;;;;;;;;;5335010;26;20070;-69
2024/05/05 04:27:48;;;;;;;45.10;8.45;;;;;;;;;;5334412;26;19997;-69
2024/05/05 04:30:13;;;;;;;59.78;8.45;;;;;;;;;;5334501;26;20331;-69
2024/05/05 04:32:39;;;;;;;31.90;7.53;;;;;;;;;;5333228;26;20030;-68
2024/05/05 04:35:04;;;;;;;74.72;8.40;;;;;;;;;;5335095;26;20019;-68
2024/05/05 04:37:30;;;;;;;70.38;8.30;;;;;;;;;;5334724;26;19997;-69
2024/05/05 04:39:55;;;;;;;36.38;7.00;;;;;;;;;;5316956;26;20162;-69
2024/05/05 04:42:20;;;;;;;39.10;6.70;;;;;;;;;;5332938;26;20571;-69
2024/05/05 04:44:46;;;;;;;38.28;6.40;;;;;;;;;;5333633;26;19997;-69
2024/05/05 04:47:11;;;;;;;26.23;5.97;;;;;;;;;;5335076;26;20000;-69
2024/05/05 04:49:36;;;;;;;16.70;5.90;;;;;;;;;;5333424;26;20001;-68
2024/05/05 04:52:02;;;;;;;18.27;6.03;;;;;;;;;;5333561;26;19997;-69
2024/05/05 04:54:27;;;;;;;29.92;6.28;;;;;;;;;;5334578;26;19997;-69
2024/05/05 04:56:53;;;;;;;16.25;6.10;;;;;;;;;;5334184;26;20009;-69
2024/05/05 04:59:18;;;;;;;26.05;6.63;;;;;;;;;;5332688;26;20932;-69
2024/05/05 05:01:43;;;;;;;42.92;6.40;;;;;;;;;;5334867;26;20012;-68
2024/05/05 05:04:09;;;;;;;18.60;6.22;;;;;;;;;;5334636;26;20032;-69
2024/05/05 05:06:34;;;;;;;33.75;6.32;;;;;;;;;;5333903;26;20336;-69
2024/05/05 05:09:01;;;;;;;50.92;6.45;;;;;;;;;;5333894;26;20021;-69
2024/05/05 05:11:33;;;;;;;48.40;6.00;;;;;;;;;;5333163;26;20448;-68
2024/05/05 05:13:59;;;;;;;29.17;6.00;;;;;;;;;;5333688;26;20008;-68
2024/05/05 05:16:24;;;;;;;65.43;6.88;;;;;;;;;;5334430;26;20005;-69
2024/05/05 05:18:49;;;;;;;34.40;6.28;;;;;;;;;;5334335;26;20000;-68
2024/05/05 05:21:15;;;;;;;19.55;6.15;;;;;;;;;;5333493;26;19997;-68
2024/05/05 05:23:40;;;;;;;50.45;6.47;;;;;;;;;;5333685;26;20005;-69
2024/05/05 05:26:05;;;;;;;76.20;6.53;;;;;;;;;;5333734;26;20008;-68
2024/05/05 05:28:31;;;;;;;63.22;6.10;;;;;;;;;;5333472;26;20028;-69
2024/05/05 05:30:56;;;;;;;64.90;6.43;;;;;;;;;;5333641;26;19997;-69
2024/05/05 05:33:21;;;;;;;33.35;5.43;;;;;;;;;;5333792;26;20012;-69
2024/05/05 05:35:47;;;;;;;35.65;6.07;;;;;;;;;;5314002;26;20013;-69
2024/05/05 05:38:12;;;;;;;46.53;5.63;;;;;;;;;;5335111;26;20005;-69
2024/05/05 05:40:37;;;;;;;21.65;7.35;;;;;;;;;;5332700;26;19997;-69
2024/05/05 05:43:04;;;;;;;28.30;11.00;;;;;;;;;;5333418;26;20036;-69
2024/05/05 05:45:30;;;;;;;70.65;18.27;;;;;;;;;;5331245;26;20078;-69
2024/05/05 05:47:55;;;;;;;89.28;23.20;;;;;;;;;;5333508;26;20009;-68
2024/05/05 05:50:20;;;;;;;52.40;21.70;;;;;;;;;;5333672;26;20000;-69
2024/05/05 05:52:46;;;;;;;63.05;19.58;;;;;;;;;;5334052;26;20008;-69
2024/05/05 05:55:11;;;;;;;44.90;15.73;;;;;;;;;;5318072;26;19997;-69
2024/05/05 05:57:37;;;;;;;35.17;12.15;;;;;;;;;;5317453;26;19996;-68
2024/05/05 06:00:02;;;;;;;32.50;9.85;;;;;;;;;;5321982;26;20019;-69
2024/05/05 06:02:28;;;;;;;15.45;7.78;;;;;;;;;;5332908;26;20012;-69
2024/05/05 06:04:53;;;;;;;14.93;7.75;;;;;;;;;;5318169;26;20011;-69
2024/05/05 06:07:19;;;;;;;26.42;8.82;;;;;;;;;;5328242;26;20023;-69
2024/05/05 06:09:44;;;;;;;21.33;9.05;;;;;;;;;;5331485;26;20001;-68
2024/05/05 06:12:10;;;;;;;24.02;8.35;;;;;;;;;;5332839;26;20009;-69
2024/05/05 06:14:35;;;;;;;25.58;7.88;;;;;;;;;;5331512;26;20080;-68
2024/05/05 06:17:01;;;;;;;23.65;7.28;;;;;;;;;;5333917;26;20005;-69
2024/05/05 06:19:26;;;;;;;14.70;6.78;;;;;;;;;;5313622;26;20081;-69
2024/05/05 06:21:51;;;;;;;14.15;6.00;;;;;;;;;;5325219;26;20442;-69
2024/05/05 06:24:17;;;;;;;24.02;6.85;;;;;;;;;;5330134;26;20467;-69
2024/05/05 06:26:42;;;;;;;15.10;7.30;;;;;;;;;;5333247;26;20331;-69
2024/05/05 06:29:07;;;;;;;14.32;7.63;;;;;;;;;;5330005;26;20011;-68
2024/05/05 06:31:33;;;;;;;18.13;7.85;;;;;;;;;;5333223;26;20011;-69
2024/05/05 06:33:58;;;;;;;16.58;8.05;;;;;;;;;;5333876;26;20001;-69
2024/05/05 06:36:23;;;;;;;16.13;8.25;;;;;;;;;;5331839;26;20698;-69
2024/05/05 06:38:49;;;;;;;13.65;7.55;;;;;;;;;;5331820;26;20023;-69
2024/05/05 06:41:14;;;;;;;14.27;7.38;;;;;;;;;;5316453;26;20409;-69
2024/05/05 06:43:40;;;;;;;11.95;6.78;;;;;;;;;;5332724;26;20001;-69
2024/05/05 06:46:05;;;;;;;11.15;6.57;;;;;;;;;;5315545;26;20005;-69
2024/05/05 06:48:30;;;;;;;10.55;6.05;;;;;;;;;;5332924;26;20485;-69
2024/05/05 06:50:56;;;;;;;11.98;6.40;;;;;;;;;;5331684;26;20001;-69
2024/05/05 06:53:21;;;;;;;9.52;5.75;;;;;;;;;;5333602;26;20009;-68
2024/05/05 06:55:47;;;;;;;9.07;5.70;;;;;;;;;;5332535;26;20004;-69
2024/05/05 06:58:12;;;;;;;10.18;6.00;;;;;;;;;;5328857;26;20001;-69
2024/05/05 07:00:37;;;;;;;11.05;5.93;;;;;;;;;;5330360;26;20091;-69
2024/05/05 07:03:03;;;;;;;11.60;6.47;;;;;;;;;;5327077;26;19997;-69
2024/05/05 07:05:28;;;;;;;10.35;6.30;;;;;;;;;;5326534;26;20083;-69
2024/05/05 07:07:54;;;;;;;10.00;5.85;;;;;;;;;;5327199;26;20452;-69
2024/05/05 07:10:19;;;;;;;11.77;7.15;;;;;;;;;;5329823;26;20013;-69
2024/05/05 07:12:45;;;;;;;13.02;7.03;;;;;;;;;;5315604;26;19997;-69
2024/05/05 07:15:10;;;;;;;13.68;7.05;;;;;;;;;;5331121;26;20009;-69
2024/05/05 07:17:36;;;;;;;12.73;7.43;;;;;;;;;;5316276;26;20012;-69
2024/05/05 07:20:01;;;;;;;11.40;6.70;;;;;;;;;;5330001;26;20004;-68
2024/05/05 07:22:26;;;;;;;13.82;7.38;;;;;;;;;;5332552;26;20012;-68
2024/05/05 07:24:52;;;;;;;12.88;7.55;;;;;;;;;;5312975;26;20007;-69
2024/05/05 07:27:17;;;;;;;18.98;7.97;;;;;;;;;;5322861;26;20004;-69
2024/05/05 07:29:43;;;;;;;11.75;7.13;;;;;;;;;;5337541;26;20007;-68
2024/05/05 07:32:08;;;;;;;11.95;6.72;;;;;;;;;;5339271;26;20005;-69
2024/05/05 07:34:33;;;;;;;14.38;7.07;;;;;;;;;;5337939;26;20005;-69
2024/05/05 07:36:59;;;;;;;12.73;6.97;;;;;;;;;;5329942;26;20081;-68
2024/05/05 07:39:24;;;;;;;13.60;7.47;;;;;;;;;;5328687;26;19997;-68
2024/05/05 07:41:49;;;;;;;13.00;7.45;;;;;;;;;;5337430;26;20001;-68
2024/05/05 07:44:17;;;;;;;12.98;7.75;;;;;;;;;;5315460;26;20020;-69
2024/05/05 07:46:43;;;;;;;13.80;8.23;;;;;;;;;;5335463;26;20001;-69
2024/05/05 07:49:08;;;;;;;12.50;8.25;;;;;;;;;;5335346;26;20447;-69
2024/05/05 07:51:33;;;;;;;17.55;8.07;;;;;;;;;;5311201;26;20337;-69
2024/05/05 07:53:59;;;;;;;15.55;8.27;;;;;;;;;;5308715;26;20017;-69
2024/05/05 07:56:24;;;;;;;12.35;7.60;;;;;;;;;;5332197;26;20294;-69
2024/05/05 07:58:49;;;;;;;13.70;7.85;;;;;;;;;;5329712;26;20018;-69
2024/05/05 08:01:15;;;;;;;13.45;7.63;;;;;;;;;;5335540;26;20012;-69
2024/05/05 08:03:40;;;;;;;14.05;7.68;;;;;;;;;;5312153;26;20313;-69
2024/05/05 08:06:07;;;;;;;13.60;8.15;;;;;;;;;;5338543;26;20008;-69
2024/05/05 08:08:32;;;;;;;13.68;7.90;;;;;;;;;;5336469;26;20658;-69
2024/05/05 08:10:58;;;;;;;12.55;7.60;;;;;;;;;;5332720;26;19996;-69
2024/05/05 08:13:23;;;;;;;14.88;8.75;;;;;;;;;;5344652;26;20082;-69
2024/05/05 08:15:48;;;;;;;15.63;8.77;;;;;;;;;;5338104;26;20004;-69
2024/05/05 08:18:14;;;;;;;13.90;8.10;;;;;;;;;;5341982;26;20001;-68
2024/05/05 08:20:39;;;;;;;14.13;8.27;;;;;;;;;;5341249;26;20011;-69
2024/05/05 08:23:05;;;;;;;12.88;7.47;;;;;;;;;;5336697;26;20001;-65
2024/05/05 08:25:30;;;;;;;13.45;7.85;;;;;;;;;;5330577;26;20001;-72
2024/05/05 08:27:55;;;;;;;12.38;8.05;;;;;;;;;;5334140;26;20005;-71
2024/05/05 08:30:21;;;;;;;13.45;8.05;;;;;;;;;;5326970;26;20502;-71
2024/05/05 08:32:47;;;;;;;15.02;7.90;;;;;;;;;;5335965;26;20015;-71
2024/05/05 08:35:12;;;;;;;12.07;7.85;;;;;;;;;;5333348;26;20115;-72
2024/05/05 08:37:38;;;;;;;12.57;8.02;;;;;;;;;;5334288;26;20005;-72
2024/05/05 08:40:04;;;;;;;12.88;7.75;;;;;;;;;;5332290;26;20008;-72
2024/05/05 08:42:40;;;;;;;13.27;8.52;;;;;;;;;;5326827;26;19997;-71
2024/05/05 08:45:08;;;;;;;12.95;8.07;;;;;;;;;;5325955;26;20266;-72
2024/05/05 08:47:33;;;;;;;13.13;7.75;;;;;;;;;;5327500;26;20117;-71
2024/05/05 08:50:00;;;;;;;11.95;7.97;;;;;;;;;;5333082;26;20479;-71
2024/05/05 08:52:26;;;;;;;12.77;8.18;;;;;;;;;;5327385;26;20028;-71
2024/05/05 08:54:51;;;;;;;14.18;8.30;;;;;;;;;;5330562;26;20001;-71
2024/05/05 08:57:17;;;;;;;12.93;7.85;;;;;;;;;;5327955;26;20006;-71
2024/05/05 08:59:42;;;;;;;12.98;8.32;;;;;;;;;;5326745;26;20009;-71
2024/05/05 09:02:10;;;;;;;10.57;6.65;;;;;;;;;;5331705;26;19993;-71
2024/05/05 09:04:36;;;;;;;17.58;7.95;;;;;;;;;;5333859;26;20001;-72
2024/05/05 09:07:02;;;;;;;11.38;7.30;;;;;;;;;;5312191;26;20009;-71
2024/05/05 09:09:28;;;;;;;11.02;6.65;;;;;;;;;;5332811;26;20896;-71
2024/05/05 09:11:54;;;;;;;11.10;6.72;;;;;;;;;;5328028;26;21089;-71
2024/05/05 09:14:24;;;;;;;11.00;6.68;;;;;;;;;;5325391;26;20019;-71
2024/05/05 09:16:50;;;;;;;10.60;6.82;;;;;;;;;;5329117;26;20009;-71
2024/05/05 09:19:16;;;;;;;10.07;6.65;;;;;;;;;;5322626;26;20019;-70
2024/05/05 09:21:42;;;;;;;11.00;7.03;;;;;;;;;;5300385;26;20036;-71
2024/05/05 09:24:07;;;;;;;5.97;3.47;;;;;;;;;;5332443;26;20011;-71
2024/05/05 09:26:34;;;;;;;10.40;6.55;;;;;;;;;;5330822;26;20025;-71
2024/05/05 09:29:00;;;;;;;9.88;5.93;;;;;;;;;;5328238;26;20074;-71
2024/05/05 09:31:25;;;;;;;13.82;6.47;;;;;;;;;;5332168;26;20000;-71
2024/05/05 09:33:51;;;;;;;12.85;5.70;;;;;;;;;;5331678;26;20007;-71
2024/05/05 09:36:17;;;;;;;9.55;4.68;;;;;;;;;;5347229;26;20008;-72
2024/05/05 09:38:45;;;;;;;7.68;4.70;;;;;;;;;;5347598;26;19997;-71
2024/05/05 09:41:11;;;;;;;6.55;5.28;;;;;;;;;;5332115;26;21161;-72
2024/05/05 09:43:37;;;;;;;7.70;5.13;;;;;;;;;;5335365;26;20004;-71
2024/05/05 09:46:06;;;;;;;5.65;4.20;;;;;;;;;;5331162;26;20011;-71
2024/05/05 09:48:34;;;;;;;5.43;3.95;;;;;;;;;;5305217;26;20020;-71
2024/05/05 09:51:04;;;;;;;6.03;3.83;;;;;;;;;;5326896;26;20016;-71
2024/05/05 09:53:54;;;;;;;3.63;2.70;;;;;;;;;;5325853;26;20008;-70
2024/05/05 09:56:32;;;;;;;4.50;2.70;;;;;;;;;;5316776;26;20363;-70
2024/05/05 09:59:14;;;;;;;4.32;3.10;;;;;;;;;;5324606;26;20942;-63
2024/05/05 10:01:42;;;;;;;6.10;3.05;;;;;;;;;;5327081;26;19997;-61
2024/05/05 10:04:09;;;;;;;4.95;3.90;;;;;;;;;;5327335;26;20005;-61
2024/05/05 10:06:58;;;;;;;5.45;3.30;;;;;;;;;;5323314;26;20001;-61
2024/05/05 10:09:30;;;;;;;3.30;2.50;;;;;;;;;;5324383;26;20001;-61
2024/05/05 10:12:05;;;;;;;5.00;2.78;;;;;;;;;;5330817;26;20020;-61
2024/05/05 10:14:35;;;;;;;3.45;2.60;;;;;;;;;;5323795;26;20011;-61
2024/05/05 10:17:01;;;;;;;3.88;2.58;;;;;;;;;;5327903;26;20505;-61
2024/05/05 10:19:26;;;;;;;4.03;3.20;;;;;;;;;;5329521;26;20460;-61
2024/05/05 10:22:04;;;;;;;3.25;2.67;;;;;;;;;;5324675;26;20009;-60
2024/05/05 10:24:30;;;;;;;3.20;2.50;;;;;;;;;;5313053;26;20001;-61
2024/05/05 10:26:55;;;;;;;4.18;3.40;;;;;;;;;;5303271;26;20066;-61
2024/05/05 10:29:21;;;;;;;3.72;3.00;;;;;;;;;;5331548;26;20001;-61
2024/05/05 10:31:48;;;;;;;3.30;2.50;;;;;;;;;;5313328;26;20766;-61
2024/05/05 10:34:14;;;;;;;5.18;2.35;;;;;;;;;;5330380;26;20397;-61
2024/05/05 10:36:39;;;;;;;2.58;1.92;;;;;;;;;;5317508;26;20020;-61
2024/05/05 10:39:05;;;;;;;3.42;1.98;;;;;;;;;;5330304;26;20001;-61
2024/05/05 10:41:32;;;;;;;2.08;1.85;;;;;;;;;;5330980;26;20096;-61
2024/05/05 10:43:57;;;;;;;2.75;2.20;;;;;;;;;;5329629;26;20581;-61
2024/05/05 10:46:23;;;;;;;3.90;2.30;;;;;;;;;;5331190;26;19997;-61
2024/05/05 10:48:53;;;;;;;4.05;2.40;;;;;;;;;;5331366;26;20001;-61
2024/05/05 10:51:19;;;;;;;3.72;2.10;;;;;;;;;;5319982;26;19996;-61
2024/05/05 10:53:45;;;;;;;3.72;2.10;;;;;;;;;;5330674;26;20007;-61
2024/05/05 10:56:12;;;;;;;3.58;2.03;;;;;;;;;;5294824;26;20009;-61
2024/05/05 10:58:37;;;;;;;2.63;1.80;;;;;;;;;;5332028;26;20001;-62
2024/05/05 11:01:03;;;;;;;2.63;1.83;;;;;;;;;;5323804;26;19993;-61
2024/05/05 11:03:29;;;;;;;2.90;1.67;;;;;;;;;;5322460;26;20001;-61
2024/05/05 11:05:54;;;;;;;1.50;1.38;;;;;;;;;;5330517;26;19997;-61
2024/05/05 11:08:21;;;;;;;3.30;1.95;;;;;;;;;;5326001;26;20620;-61
2024/05/05 11:10:53;;;;;;;2.17;1.45;;;;;;;;;;5325744;26;20022;-61
2024/05/05 11:13:22;;;;;;;1.60;1.20;;;;;;;;;;5321949;26;20009;-61
2024/05/05 11:15:47;;;;;;;1.73;1.17;;;;;;;;;;5307338;26;20512;-61
2024/05/05 11:18:12;;;;;;;1.70;1.33;;;;;;;;;;5293712;26;19997;-62
2024/05/05 11:20:40;;;;;;;1.38;1.17;;;;;;;;;;5292514;26;20028;-61
2024/05/05 11:23:13;;;;;;;1.60;1.20;;;;;;;;;;5316482;26;20010;-61
2024/05/05 11:25:38;;;;;;;1.67;1.55;;;;;;;;;;5286970;27;20542;-61
2024/05/05 11:28:05;;;;;;;1.98;1.52;;;;;;;;;;5294796;26;20009;-61
2024/05/05 11:30:42;;;;;;;1.88;1.23;;;;;;;;;;5292456;26;20250;-61
2024/05/05 11:33:08;;;;;;;2.13;1.20;;;;;;;;;;5292105;26;20012;-61
2024/05/05 11:35:35;;;;;;;1.63;1.15;;;;;;;;;;5299391;26;20002;-61
2024/05/05 11:38:00;;;;;;;1.40;1.30;;;;;;;;;;5296739;26;20453;-61
2024/05/05 11:40:40;;;;;;;1.27;1.10;;;;;;;;;;5333043;26;20023;-61
2024/05/05 11:43:10;;;;;;;1.33;1.10;;;;;;;;;;5318566;26;20013;-61
2024/05/05 11:45:35;;;;;;;1.35;1.13;;;;;;;;;;5317566;26;19997;-61
2024/05/05 11:48:38;;;;;;;1.42;1.25;;;;;;;;;;5298535;26;20013;-61
2024/05/05 11:51:38;;;;;;;1.35;1.20;;;;;;;;;;5296524;26;20005;-61
2024/05/05 11:54:05;;;;;;;1.30;1.10;;;;;;;;;;5295677;26;20452;-61
2024/05/05 11:56:30;;;;;;;3.83;1.20;;;;;;;;;;5293740;26;20034;-61
2024/05/05 11:58:56;;;;;;;1.77;1.30;;;;;;;;;;5298795;26;20080;-61
2024/05/05 12:01:30;;;;;;;1.50;1.10;;;;;;;;;;5292056;26;20013;-61
2024/05/05 12:03:56;;;;;;;2.45;1.20;;;;;;;;;;5290141;26;20013;-61
2024/05/05 12:06:30;;;;;;;1.10;1.00;;;;;;;;;;5310503;26;20011;-62
2024/05/05 12:08:55;;;;;;;1.10;0.90;;;;;;;;;;5308765;26;19994;-62
2024/05/05 12:11:44;;;;;;;0.95;0.88;;;;;;;;;;5299803;26;20009;-62
2024/05/05 12:14:14;;;;;;;1.10;1.00;;;;;;;;;;5297139;27;20017;-61
2024/05/05 12:16:40;;;;;;;2.05;1.35;;;;;;;;;;5330797;26;19997;-61
2024/05/05 12:19:06;;;;;;;1.30;1.00;;;;;;;;;;5308516;26;20817;-61
2024/05/05 12:21:33;;;;;;;2.85;2.05;;;;;;;;;;5313151;26;20356;-61
2024/05/05 12:23:59;;;;;;;3.10;1.30;;;;;;;;;;5325886;26;20000;-61
2024/05/05 12:26:35;;;;;;;2.20;1.38;;;;;;;;;;5329088;26;20008;-61
2024/05/05 12:29:24;;;;;;;1.75;1.10;;;;;;;;;;5300650;26;20653;-61
2024/05/05 12:32:01;;;;;;;1.13;1.00;;;;;;;;;;5326254;26;20015;-61
2024/05/05 12:34:28;;;;;;;1.20;1.10;;;;;;;;;;5302700;26;20020;-61
2024/05/05 12:36:58;;;;;;;2.17;1.23;;;;;;;;;;5290364;26;20009;-61
2024/05/05 12:39:36;;;;;;;1.10;1.00;;;;;;;;;;5309496;26;19997;-61
2024/05/05 12:42:10;;;;;;;1.65;1.27;;;;;;;;;;5327090;26;19993;-61
2024/05/05 12:44:35;;;;;;;;;;;;;;;;;;5327829;26;20359;-61
2024/05/05 12:47:12;;;;;;;1.30;1.20;;;;;;;;;;5299666;26;19930;-61
2024/05/05 12:49:47;;;;;;;2.33;1.20;;;;;;;;;;5307871;26;20545;-61
2024/05/05 12:52:16;;;;;;;1.20;1.08;;;;;;;;;;5323099;26;19996;-61
2024/05/05 12:54:43;;;;;;;1.75;1.50;;;;;;;;;;5292717;26;19998;-61
2024/05/05 12:57:11;;;;;;;5.15;2.22;;;;;;;;;;5286708;26;20038;-61
2024/05/05 12:59:37;;;;;;;2.42;1.98;;;;;;;;;;5300182;26;20009;-61
2024/05/05 13:02:03;;;;;;;2.88;2.00;;;;;;;;;;5329796;26;20005;-61
2024/05/05 13:04:28;;;;;;;2.80;2.00;;;;;;;;;;5330325;26;19997;-61
2024/05/05 13:06:54;;;;;;;2.20;1.83;;;;;;;;;;5330093;26;20021;-61
2024/05/05 13:09:19;;;;;;;2.70;2.08;;;;;;;;;;5329274;26;19996;-61
2024/05/05 13:11:44;;;;;;;4.47;2.00;;;;;;;;;;5321009;26;20009;-61
2024/05/05 13:14:10;;;;;;;2.95;2.60;;;;;;;;;;5294433;26;19994;-61
2024/05/05 13:16:35;;;;;;;3.65;2.90;;;;;;;;;;5339362;26;20024;-61
2024/05/05 13:19:01;;;;;;;3.95;2.78;;;;;;;;;;5327025;26;20565;-61
2024/05/05 13:21:26;;;;;;;3.78;3.03;;;;;;;;;;5311114;26;20028;-61
2024/05/05 13:23:51;;;;;;;4.65;2.70;;;;;;;;;;5297937;26;20096;-61
2024/05/05 13:26:17;;;;;;;4.25;3.22;;;;;;;;;;5293782;27;19993;-61
2024/05/05 13:28:43;;;;;;;3.67;3.00;;;;;;;;;;5296272;26;20005;-61
2024/05/05 13:31:09;;;;;;;4.93;3.40;;;;;;;;;;5318767;26;20019;-61
2024/05/05 13:33:34;;;;;;;3.95;3.25;;;;;;;;;;5326091;26;20040;-61
2024/05/05 13:36:00;;;;;;;5.80;3.20;;;;;;;;;;5295286;26;20001;-61
2024/05/05 13:38:26;;;;;;;4.18;3.10;;;;;;;;;;5293818;26;20495;-61
2024/05/05 13:40:51;;;;;;;4.35;2.55;;;;;;;;;;5297006;26;20021;-61
2024/05/05 13:43:17;;;;;;;3.10;2.58;;;;;;;;;;5304163;26;20451;-61
2024/05/05 13:45:42;;;;;;;6.20;2.63;;;;;;;;;;5307617;26;19994;-61
2024/05/05 13:48:07;;;;;;;2.92;2.58;;;;;;;;;;5294341;26;20001;-61
2024/05/05 13:50:34;;;;;;;3.92;2.58;;;;;;;;;;5297015;26;20008;-61
2024/05/05 13:53:00;;;;;;;2.90;2.28;;;;;;;;;;5297118;26;20017;-61
2024/05/05 13:55:25;;;;;;;15.13;2.65;;;;;;;;;;5302415;26;20012;-61
2024/05/05 13:57:51;;;;;;;2.88;2.30;;;;;;;;;;5310598;26;20424;-61
2024/05/05 14:00:16;;;;;;;2.58;2.00;;;;;;;;;;5295410;26;20020;-61
2024/05/05 14:02:41;;;;;;;2.47;1.95;;;;;;;;;;5295870;26;20420;-61
2024/05/05 14:05:07;;;;;;;2.83;1.77;;;;;;;;;;5293768;26;20005;-61
2024/05/05 14:07:32;;;;;;;1.88;1.63;;;;;;;;;;5299418;26;20088;-61
2024/05/05 14:09:58;;;;;;;1.80;1.65;;;;;;;;;;5292662;26;20037;-61
2024/05/05 14:12:23;;;;;;;2.30;1.70;;;;;;;;;;5293305;26;20558;-61
2024/05/05 14:14:49;;;;;;;2.22;1.58;;;;;;;;;;5297657;26;20470;-61
2024/05/05 14:17:14;;;;;;;2.60;1.77;;;;;;;;;;5332621;26;20001;-60
2024/05/05 14:19:39;;;;;;;2.80;1.77;;;;;;;;;;5301577;26;20613;-61
2024/05/05 14:22:05;;;;;;;1.90;1.58;;;;;;;;;;5294944;26;20024;-61
2024/05/05 14:24:30;;;;;;;2.35;1.80;;;;;;;;;;5295282;26;20026;-62
2024/05/05 14:26:56;;;;;;;1.92;1.70;;;;;;;;;;5295481;26;20012;-61